Americana — A8UZ5 — position and weather

sailwx.info

Track history (hours):
 
Tides and Currents Weather Stations Pressure Air Temp Water Temp Dewpoint Dewpoint Depression Visibility Wind Speed Wind Dir Waves Ship Positions

Americana

Last reported at 2014-Jul-21 17:33 UTC. Time now 2014-Jul-24 19:18 UTC.
Position N 43°55' E 036°09'.

Length 229 m; draft 7 m.

Type: Ship. MMSI: 636014578.

Date/timePositionNaut miles runAvg speedWind from/ knotsBaromVisibWave heightAir tempDewpointWater temp
2014-Jul-21 17:33N 43°55' E 036°09'1212.2
2014-Jul-21 16:33N 43°49' E 035°54'1312.1
2014-Jul-21 15:29N 43°44' E 035°38'1112.0
2014-Jul-21 14:33N 43°39' E 035°24'1211.9
2014-Jul-21 13:31N 43°33' E 035°09'1111.5
2014-Jul-21 12:33N 43°28' E 034°56'1211.2
2014-Jul-21 11:31N 43°22' E 034°42'1511.3
2014-Jul-21 10:11N 43°15' E 034°23'  
2014-Jul-19 05:33N 39°56' E 025°56'7 7.2
2014-Jul-19 04:33N 39°49' E 025°54'5 1.3
2014-Jul-19 00:30N 39°44' E 025°55'1 0.3
2014-Jul-18 21:24N 39°43' E 025°55'0 0.2
2014-Jul-18 20:30N 39°43' E 025°55'4 4.5
2014-Jul-18 19:33N 39°40' E 025°50'1010.3
2014-Jul-18 18:33N 39°32' E 025°43'6312.5
2014-Jul-18 13:30N 38°29' E 025°42'1212.5
2014-Jul-18 12:33N 38°17' E 025°43'1312.4
2014-Jul-18 11:31N 38°04' E 025°43'1212.2
2014-Jul-18 10:34N 37°52' E 025°43'1312.5
2014-Jul-18 09:33N 37°40' E 025°44'1212.2
2014-Jul-18 08:33N 37°28' E 025°49'1212.3
2014-Jul-18 07:33N 37°17' E 025°57'1212.3
2014-Jul-18 06:34N 37°07' E 026°04'1312.1
2014-Jul-18 05:30N 36°56' E 026°13'1111.6
2014-Jul-18 04:33N 36°48' E 026°22'1211.7
2014-Jul-18 03:33N 36°39' E 026°32'2412.0
2014-Jul-18 01:33N 36°21' E 026°52'1311.7
2014-Jul-18 00:29N 36°12' E 027°02'37612.0
2014-Jul-16 17:10N 31°44' E 032°20'1012.1
2014-Jul-16 16:20N 31°33' E 032°20'810.5
2014-Jul-16 15:33N 31°26' E 032°24'1212.3
2014-Jul-16 14:33N 31°14' E 032°21'9 8.6
2014-Jul-16 13:33N 31°06' E 032°18'10 9.6
2014-Jul-16 12:33N 30°56' E 032°19'64 4.0
2014-Jul-15 20:32N 29°53' E 032°31'  
Track history (hours):
 
Tides and Currents Weather Stations Pressure Air Temp Water Temp Dewpoint Dewpoint Depression Visibility Wind Speed Wind Dir Waves Ship Positions

Americana

Last reported at 2014-Jul-21 17:33 UTC. Time now 2014-Jul-24 19:18 UTC.
Position N 43°55' E 036°09'.

Length 229 m; draft 7 m.

Type: Ship. MMSI: 636014578.

Date/timePositionNaut miles runAvg speedWind from/ knotsBaromVisibWave heightAir tempDewpointWater temp
2014-Jul-21 17:33N 43°55' E 036°09'1212.2
2014-Jul-21 16:33N 43°49' E 035°54'1312.1
2014-Jul-21 15:29N 43°44' E 035°38'1112.0
2014-Jul-21 14:33N 43°39' E 035°24'1211.9
2014-Jul-21 13:31N 43°33' E 035°09'1111.5
2014-Jul-21 12:33N 43°28' E 034°56'1211.2
2014-Jul-21 11:31N 43°22' E 034°42'1511.3
2014-Jul-21 10:11N 43°15' E 034°23'  
2014-Jul-19 05:33N 39°56' E 025°56'7 7.2
2014-Jul-19 04:33N 39°49' E 025°54'5 1.3
2014-Jul-19 00:30N 39°44' E 025°55'1 0.3
2014-Jul-18 21:24N 39°43' E 025°55'0 0.2
2014-Jul-18 20:30N 39°43' E 025°55'4 4.5
2014-Jul-18 19:33N 39°40' E 025°50'1010.3
2014-Jul-18 18:33N 39°32' E 025°43'6312.5
2014-Jul-18 13:30N 38°29' E 025°42'1212.5
2014-Jul-18 12:33N 38°17' E 025°43'1312.4
2014-Jul-18 11:31N 38°04' E 025°43'1212.2
2014-Jul-18 10:34N 37°52' E 025°43'1312.5
2014-Jul-18 09:33N 37°40' E 025°44'1212.2
2014-Jul-18 08:33N 37°28' E 025°49'1212.3
2014-Jul-18 07:33N 37°17' E 025°57'1212.3
2014-Jul-18 06:34N 37°07' E 026°04'1312.1
2014-Jul-18 05:30N 36°56' E 026°13'1111.6
2014-Jul-18 04:33N 36°48' E 026°22'1211.7
2014-Jul-18 03:33N 36°39' E 026°32'2412.0
2014-Jul-18 01:33N 36°21' E 026°52'1311.7
2014-Jul-18 00:29N 36°12' E 027°02'37612.0
2014-Jul-16 17:10N 31°44' E 032°20'1012.1
2014-Jul-16 16:20N 31°33' E 032°20'810.5
2014-Jul-16 15:33N 31°26' E 032°24'1212.3
2014-Jul-16 14:33N 31°14' E 032°21'9 8.6
2014-Jul-16 13:33N 31°06' E 032°18'10 9.6
2014-Jul-16 12:33N 30°56' E 032°19'64 4.0
2014-Jul-15 20:32N 29°53' E 032°31'  

Dump ship's entire track history